Time;durP1;ratioP1;P1;durP2;ratioP2;P2;SDS_P1;SDS_P2;PMS_P1;PMS_P2;Temp;Humidity;BMP_temperature;BMP_pressure;BME280_temperature;BME280_humidity;BME280_pressure;Samples;Min_cycle;Max_cycle;Signal;HPM_P1;HPM_P2
2022/08/31 00:06:13;;;;;;;1.43;1.30;;;14.30;99.90;;;;;;5054408;28;20393;-75
2022/08/31 00:08:39;;;;;;;1.53;1.43;;;14.30;99.90;;;;;;5054264;28;20417;-75
2022/08/31 00:11:08;;;;;;;3.23;1.63;;;14.20;99.90;;;;;;5036551;28;20471;-75
2022/08/31 00:13:34;;;;;;;2.73;2.10;;;14.20;99.90;;;;;;5054801;28;20195;-76
2022/08/31 00:15:59;;;;;;;1.90;1.60;;;14.10;99.90;;;;;;5054249;28;20971;-75
2022/08/31 00:18:25;;;;;;;1.73;1.60;;;14.10;99.90;;;;;;5046695;28;20179;-75
2022/08/31 00:20:51;;;;;;;2.40;1.77;;;14.10;99.90;;;;;;5034134;28;20245;-75
2022/08/31 00:23:16;;;;;;;1.80;1.53;;;14.10;99.90;;;;;;5034526;28;20171;-75
2022/08/31 00:25:44;;;;;;;2.30;1.70;;;14.00;99.90;;;;;;5034493;28;20171;-76
2022/08/31 00:28:12;;;;;;;1.50;1.30;;;14.00;99.90;;;;;;5034142;28;20229;-75
2022/08/31 00:30:38;;;;;;;2.63;1.77;;;14.00;99.90;;;;;;5034211;28;20426;-74
2022/08/31 00:33:04;;;;;;;1.43;1.23;;;13.90;99.90;;;;;;5033828;28;20511;-74
2022/08/31 00:35:34;;;;;;;2.10;1.90;;;13.90;99.90;;;;;;5033748;28;20398;-74
2022/08/31 00:40:29;;;;;;;1.60;1.50;;;13.90;99.90;;;;;;5050382;28;20468;-67
2022/08/31 00:42:55;;;;;;;4.47;1.87;;;13.90;99.90;;;;;;5053220;28;20414;-66
2022/08/31 00:45:21;;;;;;;1.37;1.27;;;13.80;99.90;;;;;;5052876;28;20485;-67
2022/08/31 00:47:47;;;;;;;4.73;1.63;;;13.80;99.90;;;;;;5053004;28;20409;-66
2022/08/31 00:50:16;;;;;;;2.00;1.57;;;13.80;99.90;;;;;;5053088;28;20397;-66
2022/08/31 00:52:46;;;;;;;2.17;1.50;;;13.80;99.90;;;;;;5053006;28;20195;-67
2022/08/31 00:55:19;;;;;;;6.70;4.03;;;13.80;99.90;;;;;;5052687;28;20789;-67
2022/08/31 00:57:50;;;;;;;2.20;1.30;;;13.80;99.90;;;;;;5052408;28;20406;-68
2022/08/31 01:00:21;;;;;;;1.50;1.40;;;13.70;99.90;;;;;;5052770;28;20416;-66
2022/08/31 01:02:47;;;;;;;1.57;1.17;;;13.70;99.90;;;;;;5053076;28;20779;-67
2022/08/31 01:05:14;;;;;;;1.77;1.50;;;13.70;99.90;;;;;;5052607;28;20427;-68
2022/08/31 01:07:40;;;;;;;1.30;1.20;;;13.60;99.90;;;;;;5051650;28;20433;-68
2022/08/31 01:10:07;;;;;;;2.10;1.33;;;13.60;99.90;;;;;;5052394;28;20768;-68
2022/08/31 01:12:33;;;;;;;1.40;1.30;;;13.50;99.90;;;;;;5052619;28;20496;-66
2022/08/31 01:15:01;;;;;;;1.93;1.50;;;13.50;99.90;;;;;;5052447;28;20445;-66
2022/08/31 01:17:27;;;;;;;2.17;1.30;;;13.50;99.90;;;;;;5052631;28;20280;-66
2022/08/31 01:20:00;;;;;;;1.60;1.30;;;13.50;99.90;;;;;;5052404;28;21017;-66
2022/08/31 01:22:35;;;;;;;1.40;1.27;;;13.50;99.90;;;;;;5052464;28;20155;-66
2022/08/31 01:25:01;;;;;;;1.87;1.63;;;13.50;99.90;;;;;;5052161;28;20417;-66
2022/08/31 01:27:31;;;;;;;1.93;1.20;;;13.50;99.90;;;;;;5052386;28;20401;-66
2022/08/31 01:30:03;;;;;;;2.70;1.57;;;13.50;99.90;;;;;;5052449;28;20402;-66
2022/08/31 01:32:29;;;;;;;5.90;1.60;;;13.60;99.90;;;;;;5052072;28;20441;-66
2022/08/31 01:34:54;;;;;;;2.43;1.50;;;13.60;99.90;;;;;;5052085;28;20420;-66
2022/08/31 01:37:20;;;;;;;2.90;1.80;;;13.70;99.90;;;;;;5052489;28;20216;-67
2022/08/31 01:39:46;;;;;;;1.40;1.20;;;13.80;99.90;;;;;;5051994;28;20205;-66
2022/08/31 01:42:11;;;;;;;1.93;1.70;;;13.70;99.90;;;;;;5052170;28;20712;-66
2022/08/31 01:44:37;;;;;;;2.70;1.60;;;13.80;99.90;;;;;;5052169;28;20171;-66
2022/08/31 01:47:02;;;;;;;2.13;1.80;;;13.80;99.90;;;;;;5034021;28;20185;-67
2022/08/31 01:49:28;;;;;;;3.33;1.57;;;13.80;99.90;;;;;;5051912;28;20282;-67
2022/08/31 01:51:54;;;;;;;1.80;1.70;;;13.80;99.90;;;;;;5051823;28;20645;-67
2022/08/31 01:54:21;;;;;;;1.50;1.40;;;13.90;99.90;;;;;;5051965;28;20165;-66
2022/08/31 01:56:48;;;;;;;1.80;1.63;;;13.90;99.90;;;;;;5051911;28;20648;-67
2022/08/31 01:59:16;;;;;;;1.43;1.23;;;13.90;99.90;;;;;;5051874;28;20839;-67
2022/08/31 02:01:44;;;;;;;1.50;1.30;;;13.90;99.90;;;;;;5051775;28;20405;-67
2022/08/31 02:04:12;;;;;;;2.57;1.27;;;13.90;99.90;;;;;;5051713;28;20406;-68
2022/08/31 02:06:41;;;;;;;1.50;1.40;;;13.90;99.90;;;;;;5051589;28;20456;-67
2022/08/31 02:09:07;;;;;;;1.60;1.50;;;13.90;99.90;;;;;;5051622;28;20422;-67
2022/08/31 02:11:33;;;;;;;1.70;1.60;;;14.00;99.90;;;;;;5051692;28;20409;-68
2022/08/31 02:13:58;;;;;;;4.70;1.40;;;14.00;99.90;;;;;;5051767;28;20656;-67
2022/08/31 02:16:24;;;;;;;4.27;1.53;;;14.00;99.90;;;;;;5051420;28;20189;-66
2022/08/31 02:18:50;;;;;;;1.63;1.53;;;14.00;99.90;;;;;;5051701;28;20187;-67
2022/08/31 02:21:16;;;;;;;6.20;1.50;;;14.00;99.90;;;;;;5051638;28;20257;-67
2022/08/31 02:23:41;;;;;;;1.83;1.43;;;14.00;99.90;;;;;;5051619;28;20457;-67
2022/08/31 02:26:08;;;;;;;1.33;1.23;;;14.00;99.90;;;;;;5051357;28;20178;-67
2022/08/31 02:28:34;;;;;;;3.00;1.40;;;14.00;99.90;;;;;;5051475;28;20256;-68
2022/08/31 02:31:00;;;;;;;1.70;1.43;;;14.00;99.90;;;;;;5051429;28;20406;-68
2022/08/31 02:33:25;;;;;;;1.50;1.40;;;13.90;99.90;;;;;;5051431;28;20851;-67
2022/08/31 02:35:51;;;;;;;1.60;1.50;;;13.90;99.90;;;;;;5051317;28;20174;-67
2022/08/31 02:38:17;;;;;;;1.70;1.60;;;13.90;99.90;;;;;;5051434;28;20723;-67
2022/08/31 02:40:43;;;;;;;1.57;1.47;;;13.90;99.90;;;;;;5051542;28;20417;-67
2022/08/31 02:43:10;;;;;;;2.80;1.57;;;13.90;99.90;;;;;;5051484;28;20409;-67
2022/08/31 02:45:37;;;;;;;3.37;1.40;;;13.90;99.90;;;;;;5051144;28;20167;-67
2022/08/31 02:48:05;;;;;;;3.40;1.30;;;13.80;99.90;;;;;;5051222;28;20431;-67
2022/08/31 02:50:31;;;;;;;2.03;1.50;;;13.80;99.90;;;;;;5051286;28;20414;-68
2022/08/31 02:52:57;;;;;;;1.97;1.47;;;13.80;99.90;;;;;;5051162;28;20437;-65
2022/08/31 02:55:25;;;;;;;2.33;1.73;;;13.80;99.90;;;;;;5051344;28;20474;-68
2022/08/31 02:57:50;;;;;;;2.90;2.30;;;13.80;99.90;;;;;;5051370;28;20160;-66
2022/08/31 03:00:19;;;;;;;1.57;1.47;;;13.70;99.90;;;;;;5051147;28;20409;-66
2022/08/31 03:02:44;;;;;;;2.30;2.10;;;13.80;99.90;;;;;;5051366;28;20581;-66
2022/08/31 03:05:11;;;;;;;1.90;1.43;;;13.70;99.90;;;;;;5051091;28;20438;-66
2022/08/31 03:07:37;;;;;;;3.23;1.50;;;13.70;99.90;;;;;;5050977;28;20676;-66
2022/08/31 03:10:06;;;;;;;3.50;1.40;;;13.70;99.90;;;;;;5051081;28;20915;-65
2022/08/31 03:12:33;;;;;;;1.73;1.20;;;13.60;99.90;;;;;;5050932;28;20472;-66
2022/08/31 03:14:59;;;;;;;2.67;1.77;;;13.60;99.90;;;;;;5050847;28;20892;-67
2022/08/31 03:17:25;;;;;;;1.87;1.70;;;13.60;99.90;;;;;;5051162;28;20412;-67
2022/08/31 03:19:53;;;;;;;2.70;1.67;;;13.60;99.90;;;;;;5052710;28;20187;-67
2022/08/31 03:22:18;;;;;;;2.23;1.33;;;13.60;99.90;;;;;;5054695;28;20167;-66
2022/08/31 03:24:44;;;;;;;1.63;1.53;;;13.70;99.90;;;;;;5054458;28;20401;-66
2022/08/31 03:27:09;;;;;;;2.83;1.70;;;13.60;99.90;;;;;;5054325;28;20294;-66
2022/08/31 03:29:35;;;;;;;1.43;1.33;;;13.70;99.90;;;;;;5054401;28;20248;-67
2022/08/31 03:32:01;;;;;;;3.83;2.77;;;13.60;99.90;;;;;;5054346;28;20183;-67
2022/08/31 03:34:26;;;;;;;1.90;1.80;;;13.60;99.90;;;;;;5054537;28;20981;-67
2022/08/31 03:36:52;;;;;;;3.30;1.80;;;13.60;99.90;;;;;;5054279;28;20699;-68
2022/08/31 03:39:17;;;;;;;1.70;1.60;;;13.50;99.90;;;;;;5054245;28;20203;-67
2022/08/31 03:41:43;;;;;;;2.60;1.70;;;13.50;99.90;;;;;;5054368;28;20540;-67
2022/08/31 03:44:09;;;;;;;2.17;2.07;;;13.50;99.90;;;;;;5054430;28;20171;-67
2022/08/31 03:46:34;;;;;;;2.10;1.90;;;13.40;99.90;;;;;;5054500;28;20171;-66
2022/08/31 03:49:01;;;;;;;4.30;1.40;;;13.40;99.90;;;;;;5054182;28;20244;-66
2022/08/31 03:51:27;;;;;;;1.50;1.40;;;13.40;99.90;;;;;;5054500;28;20196;-68
2022/08/31 03:53:54;;;;;;;1.77;1.67;;;13.40;99.90;;;;;;5054190;28;20417;-67
2022/08/31 03:56:20;;;;;;;3.17;1.80;;;13.30;99.90;;;;;;5053992;28;20752;-67
2022/08/31 03:58:45;;;;;;;1.80;1.67;;;13.30;99.90;;;;;;5053954;28;20487;-68
2022/08/31 04:01:12;;;;;;;2.50;2.00;;;13.30;99.90;;;;;;5054008;28;20464;-67
2022/08/31 04:03:38;;;;;;;2.37;1.80;;;13.20;99.90;;;;;;5053991;28;20771;-67
2022/08/31 04:06:12;;;;;;;1.83;1.60;;;13.20;99.90;;;;;;5053682;28;20767;-67
2022/08/31 04:08:38;;;;;;;2.73;2.37;;;13.10;99.90;;;;;;5053787;28;20440;-67
2022/08/31 04:11:11;;;;;;;2.87;2.50;;;13.20;99.90;;;;;;5053897;28;20410;-68
2022/08/31 04:13:37;;;;;;;2.90;1.80;;;13.10;99.90;;;;;;5053868;28;20519;-67
2022/08/31 04:16:06;;;;;;;2.40;2.17;;;13.10;99.90;;;;;;5053527;28;20414;-67
2022/08/31 04:18:32;;;;;;;4.20;2.50;;;13.10;99.90;;;;;;5053798;28;20417;-68
2022/08/31 04:20:57;;;;;;;2.23;2.00;;;13.10;99.90;;;;;;5053741;28;20462;-67
2022/08/31 04:23:28;;;;;;;4.13;2.17;;;13.10;99.90;;;;;;5053658;28;20206;-68
2022/08/31 04:25:53;;;;;;;2.70;1.70;;;13.10;99.90;;;;;;5053655;28;20179;-67
2022/08/31 04:28:19;;;;;;;1.90;1.60;;;13.10;99.90;;;;;;5053369;28;20436;-68
2022/08/31 04:30:45;;;;;;;2.20;1.67;;;13.10;99.90;;;;;;5053630;28;20178;-69
2022/08/31 04:33:11;;;;;;;4.03;2.73;;;13.10;99.90;;;;;;5052163;28;20191;-66
2022/08/31 04:35:39;;;;;;;4.33;2.30;;;13.10;99.90;;;;;;5052518;28;20520;-66
2022/08/31 04:38:04;;;;;;;2.20;2.00;;;13.10;99.90;;;;;;5052901;28;20221;-66
2022/08/31 04:40:30;;;;;;;2.97;2.77;;;13.10;99.90;;;;;;5053251;28;20456;-66
2022/08/31 04:42:56;;;;;;;2.53;1.93;;;13.10;99.90;;;;;;5040390;28;20755;-67
2022/08/31 04:45:23;;;;;;;2.07;1.97;;;13.10;99.90;;;;;;5050230;28;20182;-67
2022/08/31 04:47:49;;;;;;;2.07;1.87;;;13.10;99.90;;;;;;5053176;28;20984;-67
2022/08/31 04:50:15;;;;;;;3.07;1.97;;;13.10;99.90;;;;;;5050425;28;20444;-66
2022/08/31 04:52:42;;;;;;;2.60;1.90;;;13.10;99.90;;;;;;5040533;28;20530;-66
2022/08/31 04:55:08;;;;;;;3.27;1.60;;;13.10;99.90;;;;;;5053230;28;20413;-67
2022/08/31 04:57:34;;;;;;;4.37;2.97;;;13.10;99.90;;;;;;5053064;28;20772;-67
2022/08/31 05:00:01;;;;;;;2.60;2.00;;;13.10;99.90;;;;;;5053285;28;20459;-68
2022/08/31 05:02:26;;;;;;;10.73;2.57;;;13.10;99.90;;;;;;5035173;28;21001;-69
2022/08/31 05:04:52;;;;;;;4.07;1.93;;;13.10;99.90;;;;;;5052922;28;20405;-68
2022/08/31 05:07:17;;;;;;;7.10;2.37;;;13.20;99.90;;;;;;5052722;28;20189;-69
2022/08/31 05:09:43;;;;;;;2.63;2.43;;;13.20;99.90;;;;;;5055742;28;20195;-68
2022/08/31 05:12:08;;;;;;;7.40;2.67;;;13.10;99.90;;;;;;5053273;28;20198;-68
2022/08/31 05:14:34;;;;;;;3.80;2.13;;;13.20;99.90;;;;;;5052672;28;20175;-68
2022/08/31 05:17:00;;;;;;;3.20;2.47;;;13.20;99.90;;;;;;5052630;28;20275;-68
2022/08/31 05:19:26;;;;;;;4.33;2.37;;;13.20;99.90;;;;;;5052385;28;20577;-67
2022/08/31 05:21:51;;;;;;;2.93;2.50;;;13.20;99.90;;;;;;5052393;28;20402;-67
2022/08/31 05:24:21;;;;;;;3.00;2.33;;;13.30;99.90;;;;;;5052960;28;20163;-68
2022/08/31 05:26:49;;;;;;;2.60;2.40;;;13.40;99.90;;;;;;5052406;28;20178;-67
2022/08/31 05:29:17;;;;;;;2.27;2.10;;;13.40;99.90;;;;;;5052135;28;20420;-67
2022/08/31 05:31:43;;;;;;;2.77;2.50;;;13.50;99.90;;;;;;5052401;28;20524;-67
2022/08/31 05:34:11;;;;;;;4.83;3.40;;;13.50;99.90;;;;;;5052850;28;20397;-67
2022/08/31 05:36:38;;;;;;;6.20;3.43;;;13.60;99.90;;;;;;5051675;28;20413;-68
2022/08/31 05:39:08;;;;;;;2.20;2.00;;;13.70;99.90;;;;;;5051897;28;20437;-69
2022/08/31 05:41:33;;;;;;;2.07;1.60;;;13.80;99.90;;;;;;5051479;28;20413;-68
2022/08/31 05:44:02;;;;;;;2.07;1.50;;;13.90;99.90;;;;;;5051711;28;20398;-68
2022/08/31 05:46:28;;;;;;;3.10;1.80;;;14.20;99.90;;;;;;5052460;28;20232;-69
2022/08/31 05:48:54;;;;;;;1.93;1.60;;;15.10;99.90;;;;;;5052367;28;20423;-67
2022/08/31 05:51:20;;;;;;;1.70;1.60;;;16.00;99.90;;;;;;5052349;28;20416;-69
2022/08/31 05:53:47;;;;;;;2.03;1.60;;;16.70;99.90;;;;;;5052462;28;20544;-69
2022/08/31 05:56:23;;;;;;;1.63;1.33;;;16.80;99.90;;;;;;5051463;28;20180;-69
2022/08/31 05:58:50;;;;;;;1.43;1.30;;;17.30;99.90;;;;;;5033995;28;20529;-68
2022/08/31 06:01:22;;;;;;;1.80;1.30;;;17.70;99.90;;;;;;5051713;28;20887;-68
2022/08/31 06:03:48;;;;;;;1.50;1.20;;;18.00;99.90;;;;;;5051815;28;20528;-68
2022/08/31 06:06:14;;;;;;;1.30;1.20;;;18.10;99.90;;;;;;5051287;28;20397;-68
2022/08/31 06:08:40;;;;;;;1.30;1.20;;;18.30;99.90;;;;;;5051428;28;20462;-70
2022/08/31 06:11:14;;;;;;;2.30;1.17;;;18.30;99.90;;;;;;5051353;28;20818;-68
2022/08/31 06:13:40;;;;;;;1.27;0.97;;;18.90;99.90;;;;;;5051299;28;20450;-68
2022/08/31 06:16:08;;;;;;;1.90;1.00;;;19.70;99.90;;;;;;5051128;28;20475;-68
2022/08/31 06:18:39;;;;;;;2.50;1.37;;;19.40;99.90;;;;;;5051416;28;20440;-68
2022/08/31 06:21:11;;;;;;;1.53;1.07;;;19.90;99.90;;;;;;5051339;28;20436;-68
2022/08/31 06:23:38;;;;;;;3.07;1.10;;;20.00;99.90;;;;;;5050998;28;20898;-68
2022/08/31 06:26:14;;;;;;;2.30;1.03;;;20.10;99.90;;;;;;5050863;28;20418;-68
2022/08/31 06:28:42;;;;;;;1.60;1.20;;;20.20;99.90;;;;;;5051061;28;20503;-68
2022/08/31 06:31:14;;;;;;;1.13;1.03;;;20.30;99.90;;;;;;5051246;28;20923;-68
2022/08/31 06:33:40;;;;;;;2.03;1.10;;;20.60;99.90;;;;;;5051056;28;21034;-68
2022/08/31 06:36:12;;;;;;;1.43;1.30;;;20.50;99.90;;;;;;5050757;28;20397;-68
2022/08/31 06:38:39;;;;;;;1.40;1.10;;;20.40;99.90;;;;;;5065912;22;20487;-74
2022/08/31 06:41:16;;;;;;;2.90;1.70;;;20.80;99.90;;;;;;5029282;28;20433;-74
2022/08/31 06:43:42;;;;;;;1.40;1.00;;;21.00;99.90;;;;;;5026141;28;20431;-74
2022/08/31 06:46:08;;;;;;;2.60;2.23;;;21.60;99.90;;;;;;5031282;28;20490;-74
2022/08/31 06:48:36;;;;;;;1.60;0.90;;;22.20;99.90;;;;;;5031271;28;20485;-74
2022/08/31 06:51:03;;;;;;;2.60;1.17;;;22.50;99.90;;;;;;5031819;28;20820;-74
2022/08/31 06:53:29;;;;;;;1.30;1.10;;;22.90;99.90;;;;;;5031317;28;21023;-75
2022/08/31 06:55:55;;;;;;;1.00;0.90;;;22.40;99.90;;;;;;5034882;28;20405;-73
2022/08/31 06:58:20;;;;;;;1.37;0.97;;;22.80;99.90;;;;;;5035453;28;20406;-74
2022/08/31 07:00:48;;;;;;;1.43;0.80;;;22.30;99.90;;;;;;5035498;28;20183;-73
2022/08/31 07:03:22;;;;;;;1.40;1.30;;;23.00;99.90;;;;;;5035803;28;20182;-74
2022/08/31 07:05:51;;;;;;;0.87;0.83;;;23.00;99.90;;;;;;5035040;28;20778;-74
2022/08/31 07:08:19;;;;;;;1.00;0.87;;;23.80;99.90;;;;;;5035002;28;20787;-75
2022/08/31 07:10:46;;;;;;;1.70;0.90;;;23.60;99.90;;;;;;5034899;28;20469;-73
2022/08/31 07:13:11;;;;;;;1.60;0.93;;;23.60;99.90;;;;;;5034875;28;20853;-74
2022/08/31 07:15:37;;;;;;;5.90;1.20;;;23.50;99.90;;;;;;5034550;28;20409;-72
2022/08/31 07:18:03;;;;;;;0.80;0.60;;;24.00;99.90;;;;;;5034933;28;20246;-73
2022/08/31 07:20:29;;;;;;;1.27;1.00;;;23.80;99.90;;;;;;5034542;28;20195;-75
2022/08/31 07:22:56;;;;;;;1.27;0.90;;;23.70;99.90;;;;;;5034795;28;20592;-73
2022/08/31 07:25:21;;;;;;;1.33;0.90;;;24.20;99.90;;;;;;5034896;28;20923;-74
2022/08/31 07:27:54;;;;;;;2.33;1.93;;;24.20;99.90;;;;;;5034771;28;20410;-74
2022/08/31 07:30:22;;;;;;;1.90;1.00;;;24.10;99.90;;;;;;5034823;28;20500;-73
2022/08/31 07:32:49;;;;;;;1.40;0.80;;;23.80;99.90;;;;;;5034411;28;20456;-73
2022/08/31 07:35:16;;;;;;;1.13;0.80;;;23.80;99.90;;;;;;5034461;28;20409;-74
2022/08/31 07:43:11;;;;;;;1.23;1.10;;;24.50;99.90;;;;;;5035186;28;20923;-73
2022/08/31 07:45:36;;;;;;;0.97;0.80;;;24.10;99.90;;;;;;5034181;28;20754;-75
2022/08/31 07:48:02;;;;;;;2.13;0.80;;;23.70;99.90;;;;;;5034572;28;20413;-75
2022/08/31 07:50:30;;;;;;;1.00;0.90;;;23.90;99.90;;;;;;5034408;28;20194;-75
2022/08/31 07:52:57;;;;;;;1.13;0.93;;;23.80;99.90;;;;;;5034890;28;20453;-75
2022/08/31 07:55:24;;;;;;;2.97;0.80;;;24.00;99.30;;;;;;5034227;28;20495;-72
2022/08/31 07:57:53;;;;;;;0.80;0.80;;;24.30;99.20;;;;;;5034126;28;20410;-74
2022/08/31 08:00:28;;;;;;;1.10;0.73;;;24.60;99.70;;;;;;5034039;28;20423;-74
2022/08/31 08:02:54;;;;;;;2.23;0.97;;;23.50;99.90;;;;;;5034497;28;20781;-74
2022/08/31 08:05:25;;;;;;;1.33;0.90;;;24.10;99.40;;;;;;5034058;28;20493;-74
2022/08/31 08:07:53;;;;;;;1.07;0.97;;;24.80;97.80;;;;;;5036516;28;20499;-74
2022/08/31 08:10:20;;;;;;;1.10;0.70;;;24.70;97.00;;;;;;5039642;28;20433;-74
2022/08/31 08:12:55;;;;;;;1.10;0.70;;;24.80;97.80;;;;;;5033703;28;20454;-74
2022/08/31 08:15:22;;;;;;;1.20;0.80;;;24.60;98.80;;;;;;5033931;28;20420;-74
2022/08/31 08:17:48;;;;;;;1.03;0.87;;;24.90;98.10;;;;;;5034084;28;20440;-74
2022/08/31 08:20:14;;;;;;;0.87;0.80;;;24.80;98.80;;;;;;5016176;28;20517;-73
2022/08/31 08:22:42;;;;;;;1.67;0.83;;;24.80;99.30;;;;;;5033664;28;20179;-73
2022/08/31 08:25:08;;;;;;;1.00;0.90;;;24.60;99.30;;;;;;5033582;28;20174;-73
2022/08/31 08:27:34;;;;;;;0.80;0.73;;;24.30;99.90;;;;;;5033794;28;20413;-74
2022/08/31 08:30:00;;;;;;;0.90;0.80;;;24.70;99.50;;;;;;5034157;28;20792;-74
2022/08/31 08:32:26;;;;;;;5.43;1.00;;;23.90;99.90;;;;;;5033867;28;20207;-73
2022/08/31 08:34:52;;;;;;;1.07;0.80;;;24.30;99.90;;;;;;5033902;28;20230;-73
2022/08/31 08:37:17;;;;;;;1.37;0.83;;;24.50;99.80;;;;;;5033390;28;20425;-73
2022/08/31 08:39:43;;;;;;;1.60;0.90;;;24.80;99.90;;;;;;5032993;28;20245;-74
2022/08/31 08:42:14;;;;;;;3.10;0.93;;;24.60;99.80;;;;;;5033792;28;20195;-75
2022/08/31 08:44:41;;;;;;;0.87;0.70;;;24.50;99.50;;;;;;5032893;28;20218;-74
2022/08/31 08:47:14;;;;;;;1.60;1.13;;;23.10;99.90;;;;;;5033152;28;20692;-74
2022/08/31 08:49:53;;;;;;;1.17;0.97;;;22.90;99.90;;;;;;5033116;28;20426;-73
2022/08/31 08:52:47;;;;;;;0.60;0.60;;;23.50;99.90;;;;;;5032758;28;20846;-74
2022/08/31 08:55:32;;;;;;;1.53;0.90;;;23.00;99.90;;;;;;5032317;28;20421;-74
2022/08/31 08:57:58;;;;;;;1.93;1.00;;;23.70;99.90;;;;;;5032740;28;20410;-74
2022/08/31 09:00:27;;;;;;;7.33;4.33;;;23.30;99.90;;;;;;5032906;28;20433;-73
2022/08/31 09:03:21;;;;;;;2.30;1.50;;;22.50;99.90;;;;;;5033277;28;20429;-76
2022/08/31 09:06:14;;;;;;;1.27;0.90;;;22.90;99.90;;;;;;5033105;28;20763;-74
2022/08/31 09:08:54;;;;;;;2.20;1.40;;;23.00;99.70;;;;;;5033409;28;20610;-74
2022/08/31 09:11:22;;;;;;;0.63;0.63;;;23.30;99.10;;;;;;5033008;28;20443;-74
2022/08/31 09:14:06;;;;;;;1.40;0.80;;;22.80;98.30;;;;;;5032934;28;20464;-74
2022/08/31 09:17:00;;;;;;;1.93;0.80;;;22.20;99.00;;;;;;5014857;28;20421;-74
2022/08/31 09:19:26;;;;;;;0.73;0.70;;;22.40;99.50;;;;;;5033603;28;20450;-74
2022/08/31 09:21:54;;;;;;;3.20;0.77;;;22.20;99.60;;;;;;5034020;28;20441;-73
2022/08/31 09:24:25;;;;;;;1.07;0.70;;;22.40;99.40;;;;;;5033233;28;20175;-75
2022/08/31 09:27:19;;;;;;;0.80;0.70;;;22.90;98.30;;;;;;5014707;28;20420;-73
2022/08/31 09:30:00;;;;;;;0.80;0.60;;;23.00;98.80;;;;;;5032282;28;20429;-73
2022/08/31 09:32:30;;;;;;;2.13;0.80;;;23.20;98.00;;;;;;5032398;28;20447;-77
2022/08/31 09:35:39;;;;;;;1.17;0.97;;;23.20;97.10;;;;;;5032480;28;20826;-74
2022/08/31 09:38:10;;;;;;;1.73;0.90;;;23.00;96.80;;;;;;5045628;28;20425;-74
2022/08/31 09:40:37;;;;;;;1.70;0.70;;;22.80;96.80;;;;;;5052271;28;20456;-75
2022/08/31 09:43:06;;;;;;;2.20;0.90;;;22.90;97.00;;;;;;5035902;28;20427;-75
2022/08/31 09:45:35;;;;;;;1.00;0.80;;;23.00;96.80;;;;;;5032230;28;20417;-74
2022/08/31 09:48:04;;;;;;;1.43;0.70;;;22.90;96.70;;;;;;5032509;28;20408;-74
2022/08/31 09:50:43;;;;;;;1.43;1.00;;;22.90;96.50;;;;;;5031840;28;20533;-73
2022/08/31 09:56:14;;;;;;;1.20;1.10;;;22.60;96.80;;;;;;5038227;28;20833;-74
2022/08/31 09:58:49;;;;;;;2.00;0.80;;;22.30;97.30;;;;;;5031860;28;20413;-73
2022/08/31 10:01:33;;;;;;;1.97;1.20;;;22.20;98.10;;;;;;5032317;28;20404;-74
2022/08/31 10:04:19;;;;;;;0.70;0.60;;;22.00;98.20;;;;;;5032163;28;20410;-74
2022/08/31 10:07:27;;;;;;;1.43;0.90;;;21.70;98.30;;;;;;5032111;28;20407;-74
2022/08/31 10:10:25;;;;;;;2.20;0.83;;;21.90;98.20;;;;;;5031865;28;20421;-75
2022/08/31 10:12:54;;;;;;;0.93;0.83;;;21.70;97.50;;;;;;5031759;28;20455;-75
2022/08/31 10:15:35;;;;;;;1.20;1.00;;;21.50;97.40;;;;;;5031532;28;20482;-73
2022/08/31 10:18:12;;;;;;;1.03;0.80;;;21.70;97.70;;;;;;5031602;28;20404;-73
2022/08/31 10:20:44;;;;;;;1.00;0.80;;;21.90;97.60;;;;;;5031725;28;20439;-74
2022/08/31 10:23:36;;;;;;;0.70;0.70;;;21.90;97.50;;;;;;5032105;28;20419;-74
2022/08/31 10:26:10;;;;;;;2.40;0.93;;;21.70;99.20;;;;;;5031451;28;20418;-75
2022/08/31 10:28:52;;;;;;;1.30;1.07;;;22.00;98.20;;;;;;5032878;28;20814;-74
2022/08/31 10:31:37;;;;;;;0.80;0.70;;;22.10;99.10;;;;;;5035435;28;20739;-73
2022/08/31 10:37:07;;;;;;;0.90;0.70;;;21.60;98.80;;;;;;5036243;28;20921;-75
2022/08/31 10:39:40;;;;;;;1.10;0.87;;;21.60;98.90;;;;;;5035453;28;20476;-74
2022/08/31 10:42:13;;;;;;;1.57;0.93;;;21.60;98.90;;;;;;5035594;28;20418;-74
2022/08/31 10:44:47;;;;;;;1.70;1.30;;;21.50;98.00;;;;;;5035293;28;20401;-73
2022/08/31 10:47:14;;;;;;;1.43;0.80;;;21.80;98.00;;;;;;5036154;28;20517;-75
2022/08/31 10:49:39;;;;;;;1.20;1.00;;;21.80;97.90;;;;;;5035313;28;20447;-74
2022/08/31 10:52:33;;;;;;;1.13;0.80;;;21.90;97.80;;;;;;5035529;28;20955;-74
2022/08/31 10:55:08;;;;;;;1.80;1.00;;;21.70;96.90;;;;;;5035257;28;20526;-74
2022/08/31 10:57:43;;;;;;;0.87;0.87;;;21.40;97.20;;;;;;5035897;28;20405;-74
2022/08/31 11:00:40;;;;;;;2.03;0.70;;;21.50;97.00;;;;;;5017702;28;20430;-74
2022/08/31 11:03:15;;;;;;;1.00;0.80;;;21.60;96.90;;;;;;5035163;28;20511;-73
2022/08/31 11:05:48;;;;;;;0.90;0.77;;;21.40;97.60;;;;;;5035120;28;20423;-74
2022/08/31 11:08:48;;;;;;;0.83;0.80;;;21.20;98.40;;;;;;5035349;28;20443;-74
2022/08/31 11:11:29;;;;;;;1.23;0.80;;;21.40;98.30;;;;;;5035245;28;20511;-75
2022/08/31 11:14:16;;;;;;;2.03;0.90;;;21.30;97.20;;;;;;5034996;28;20452;-74
2022/08/31 11:17:07;;;;;;;0.70;0.60;;;21.10;96.90;;;;;;5034888;28;20397;-74
2022/08/31 11:19:53;;;;;;;0.93;0.70;;;20.80;97.20;;;;;;5034980;28;20575;-75
2022/08/31 11:23:00;;;;;;;0.80;0.77;;;21.00;96.90;;;;;;5034941;28;20397;-75
2022/08/31 11:25:28;;;;;;;0.90;0.70;;;20.90;96.90;;;;;;5034584;28;20395;-75
2022/08/31 11:28:08;;;;;;;1.00;0.90;;;21.10;97.30;;;;;;5035126;28;20395;-74
2022/08/31 11:30:40;;;;;;;2.80;1.20;;;21.10;97.90;;;;;;5016859;28;20433;-75
2022/08/31 11:33:15;;;;;;;1.00;0.83;;;21.00;97.40;;;;;;5034828;28;20458;-74
2022/08/31 11:35:56;;;;;;;2.90;1.10;;;21.10;97.60;;;;;;5034889;28;20403;-75
2022/08/31 11:39:00;;;;;;;0.90;0.80;;;21.10;97.80;;;;;;5035450;28;20403;-75
2022/08/31 11:41:45;;;;;;;4.40;1.00;;;21.00;98.10;;;;;;5040493;28;20456;-74
2022/08/31 11:44:32;;;;;;;1.30;0.80;;;21.00;98.30;;;;;;5036141;28;20402;-74
2022/08/31 11:47:28;;;;;;;4.23;0.80;;;20.90;98.10;;;;;;5034271;28;20491;-74
2022/08/31 11:50:01;;;;;;;1.27;1.07;;;20.90;98.30;;;;;;5034277;28;20477;-73
2022/08/31 11:52:43;;;;;;;2.27;1.20;;;20.90;97.90;;;;;;5034359;28;20494;-74
2022/08/31 11:55:14;;;;;;;2.40;1.23;;;20.90;98.10;;;;;;5034077;28;20400;-73
2022/08/31 11:58:01;;;;;;;0.97;0.70;;;20.90;98.10;;;;;;5034586;28;20430;-74
2022/08/31 12:00:40;;;;;;;0.77;0.70;;;21.10;96.90;;;;;;5034170;28;20781;-74
2022/08/31 12:03:08;;;;;;;1.17;0.90;;;21.10;96.40;;;;;;5016211;28;20963;-73
2022/08/31 12:05:58;;;;;;;1.53;0.90;;;21.20;96.80;;;;;;5033931;28;20754;-73
2022/08/31 12:08:33;;;;;;;1.10;0.77;;;21.20;96.30;;;;;;5034047;28;20405;-74
2022/08/31 12:11:17;;;;;;;1.23;0.80;;;21.20;96.50;;;;;;5034065;28;20464;-74
2022/08/31 12:14:10;;;;;;;1.00;0.80;;;21.20;95.70;;;;;;5034119;28;20844;-75
2022/08/31 12:16:47;;;;;;;0.80;0.80;;;21.40;95.90;;;;;;5033680;28;20413;-74
2022/08/31 12:19:58;;;;;;;0.80;0.70;;;21.50;95.10;;;;;;5033586;28;20432;-73
2022/08/31 12:25:46;;;;;;;1.03;0.77;;;21.70;94.90;;;;;;5033650;28;20386;-73
2022/08/31 12:28:25;;;;;;;1.20;0.90;;;21.70;94.80;;;;;;5022728;28;20429;-74
2022/08/31 12:30:53;;;;;;;6.53;0.90;;;21.60;95.00;;;;;;5033472;28;20426;-73
2022/08/31 12:33:26;;;;;;;1.17;1.00;;;21.50;95.10;;;;;;5033353;28;20714;-75
2022/08/31 12:35:55;;;;;;;1.57;0.87;;;21.60;95.00;;;;;;5034589;28;20395;-74
2022/08/31 12:38:22;;;;;;;1.47;0.70;;;21.70;95.30;;;;;;5035703;28;20435;-74
2022/08/31 12:40:56;;;;;;;4.00;0.90;;;21.90;94.30;;;;;;5067478;23;20483;-68
2022/08/31 12:43:41;;;;;;;0.80;0.80;;;22.20;93.70;;;;;;5053397;28;20407;-68
2022/08/31 12:46:06;;;;;;;2.23;1.00;;;21.90;93.40;;;;;;5053266;28;20409;-68
2022/08/31 12:48:38;;;;;;;1.13;0.90;;;21.80;93.10;;;;;;5053186;28;20400;-67
2022/08/31 12:51:09;;;;;;;0.80;0.70;;;21.50;92.50;;;;;;5052925;28;20268;-68
2022/08/31 12:53:49;;;;;;;2.00;1.00;;;21.40;92.40;;;;;;5052623;28;20454;-68
2022/08/31 12:56:37;;;;;;;0.83;0.70;;;21.40;92.40;;;;;;5052985;28;20901;-68
2022/08/31 12:59:14;;;;;;;0.70;0.63;;;21.30;93.20;;;;;;5053261;28;20401;-68
2022/08/31 13:01:45;;;;;;;5.00;1.07;;;21.60;92.90;;;;;;5053169;28;20395;-68
2022/08/31 13:04:14;;;;;;;1.13;0.90;;;21.60;92.70;;;;;;5053045;28;20404;-69
2022/08/31 13:06:43;;;;;;;1.23;0.80;;;21.90;92.70;;;;;;5052718;28;20500;-68
2022/08/31 13:09:29;;;;;;;0.80;0.70;;;21.90;91.80;;;;;;5052948;28;20407;-68
2022/08/31 13:11:58;;;;;;;1.23;0.90;;;22.10;91.70;;;;;;5052544;28;20403;-69
2022/08/31 13:14:40;;;;;;;1.30;1.20;;;22.20;91.90;;;;;;5052638;28;20413;-67
2022/08/31 13:17:16;;;;;;;1.67;1.10;;;22.40;91.30;;;;;;5052581;28;20405;-67
2022/08/31 13:19:53;;;;;;;1.37;0.87;;;22.40;91.30;;;;;;5052626;28;20443;-67
2022/08/31 13:22:29;;;;;;;0.83;0.70;;;22.30;90.80;;;;;;5052524;28;20406;-67
2022/08/31 13:24:57;;;;;;;0.80;0.70;;;22.20;90.90;;;;;;5052281;28;20439;-67
2022/08/31 13:27:29;;;;;;;1.10;0.60;;;22.10;90.30;;;;;;5052252;28;20483;-68
2022/08/31 13:30:01;;;;;;;1.73;1.23;;;21.90;90.90;;;;;;5052620;28;20428;-68